createdAt,value
2022-07-29T00:01:55.407Z,67.84
2022-07-29T00:05:17.878Z,67.27
2022-07-29T00:08:39.767Z,68.07
2022-07-29T00:12:03.181Z,67.96
2022-07-29T00:15:26.202Z,67.85
2022-07-29T00:18:47.685Z,68.52
2022-07-29T00:22:09.724Z,68.69
2022-07-29T00:25:31.184Z,68.40
2022-07-29T00:29:17.081Z,69.19
2022-07-29T00:32:38.532Z,69.20
2022-07-29T00:36:00.359Z,69.40
2022-07-29T00:39:22.129Z,69.65
2022-07-29T00:42:45.208Z,69.60
2022-07-29T00:46:07.507Z,69.88
2022-07-29T00:49:30.432Z,70.20
2022-07-29T00:52:53.504Z,70.46
2022-07-29T00:56:15.791Z,71.36
2022-07-29T00:59:37.520Z,71.10
2022-07-29T01:02:59.029Z,71.44
2022-07-29T01:06:22.455Z,71.11
2022-07-29T01:09:46.915Z,71.29
2022-07-29T01:13:10.026Z,71.34
2022-07-29T01:16:34.356Z,71.80
2022-07-29T01:20:04.226Z,72.04
2022-07-29T01:23:47.315Z,72.47
2022-07-29T01:27:28.127Z,72.25
2022-07-29T01:30:55.706Z,72.81
2022-07-29T01:34:24.251Z,73.16
2022-07-29T01:37:50.768Z,72.46
2022-07-29T01:41:16.614Z,72.81
2022-07-29T01:44:45.617Z,72.91
2022-07-29T01:48:15.221Z,73.37
2022-07-29T01:51:44.671Z,73.51
2022-07-29T01:55:11.821Z,73.42
2022-07-29T01:58:35.085Z,73.76
2022-07-29T02:01:59.910Z,73.70
2022-07-29T02:05:25.261Z,73.98
2022-07-29T02:08:49.170Z,73.66
2022-07-29T02:12:12.917Z,74.00
2022-07-29T02:15:36.292Z,73.66
2022-07-29T02:19:00.117Z,74.26
2022-07-29T02:22:25.111Z,73.79
2022-07-29T02:25:49.703Z,73.75
2022-07-29T02:29:15.869Z,73.80
2022-07-29T02:32:40.200Z,73.81
2022-07-29T02:36:03.800Z,73.78
2022-07-29T02:39:29.665Z,74.14
2022-07-29T02:42:52.128Z,73.89
2022-07-29T02:46:29.070Z,74.07
2022-07-29T02:49:57.215Z,74.40
2022-07-29T02:53:22.181Z,75.21
2022-07-29T02:56:47.734Z,75.37
2022-07-29T03:00:12.151Z,75.60
2022-07-29T03:03:39.376Z,75.79
2022-07-29T03:07:02.585Z,76.17
2022-07-29T03:10:25.485Z,76.18
2022-07-29T03:13:48.639Z,75.92
2022-07-29T03:17:12.087Z,75.81
2022-07-29T03:20:33.924Z,76.01
2022-07-29T03:23:55.634Z,75.94
2022-07-29T03:27:17.198Z,75.68
2022-07-29T03:30:40.068Z,75.78
2022-07-29T03:34:06.054Z,75.60
2022-07-29T03:37:28.012Z,75.52
2022-07-29T03:40:53.610Z,75.49
2022-07-29T03:44:17.625Z,74.92
2022-07-29T03:47:51.114Z,75.48
2022-07-29T03:51:15.118Z,75.18
2022-07-29T03:54:36.934Z,75.10
2022-07-29T03:57:59.792Z,75.10
2022-07-29T04:01:23.082Z,74.80
2022-07-29T04:04:46.218Z,74.98
2022-07-29T04:08:08.051Z,74.54
2022-07-29T04:11:29.949Z,75.27
2022-07-29T04:14:51.365Z,75.17
2022-07-29T04:18:13.438Z,74.79
2022-07-29T04:21:40.608Z,74.69
2022-07-29T04:25:04.130Z,75.04
2022-07-29T04:28:27.033Z,74.56
2022-07-29T04:31:48.967Z,74.66
2022-07-29T04:35:10.917Z,74.21
2022-07-29T04:38:34.347Z,74.69
2022-07-29T04:41:56.385Z,74.15
2022-07-29T04:45:22.522Z,74.21
2022-07-29T04:48:44.129Z,73.83
2022-07-29T04:52:07.020Z,73.76
2022-07-29T04:55:30.003Z,73.56
2022-07-29T04:58:51.968Z,73.81
2022-07-29T05:02:14.009Z,73.95
2022-07-29T05:05:35.834Z,73.33
2022-07-29T05:08:57.769Z,73.16
2022-07-29T05:12:20.568Z,73.37
2022-07-29T05:15:42.469Z,73.08
2022-07-29T05:19:05.326Z,72.53
2022-07-29T05:22:27.191Z,72.11
2022-07-29T05:25:48.721Z,72.13
2022-07-29T05:29:44.638Z,72.42
2022-07-29T05:32:53.822Z,72.65
2022-07-29T05:36:15.583Z,71.90
2022-07-29T05:39:47.381Z,72.10
2022-07-29T05:43:12.405Z,71.44
2022-07-29T05:46:35.650Z,71.73
2022-07-29T05:49:57.485Z,71.96
2022-07-29T05:53:20.540Z,71.44
2022-07-29T05:56:42.255Z,71.50
2022-07-29T06:00:05.058Z,70.75
2022-07-29T06:03:36.020Z,70.76
2022-07-29T06:06:57.544Z,70.02
2022-07-29T06:10:20.049Z,69.14
2022-07-29T06:13:45.840Z,68.74
2022-07-29T06:17:07.941Z,67.88
2022-07-29T06:20:32.652Z,67.29
2022-07-29T06:23:54.936Z,67.19
2022-07-29T06:27:17.295Z,66.65
2022-07-29T06:30:39.012Z,66.68
2022-07-29T06:34:00.700Z,66.41
2022-07-29T06:37:23.945Z,66.06
2022-07-29T06:41:03.283Z,65.77
2022-07-29T06:44:25.682Z,65.12
2022-07-29T06:47:47.564Z,64.96
2022-07-29T06:51:09.185Z,65.25
2022-07-29T06:54:32.346Z,64.55
2022-07-29T06:57:54.090Z,64.61
2022-07-29T07:01:16.377Z,64.67
2022-07-29T07:04:38.440Z,64.51
2022-07-29T07:08:00.209Z,64.36
2022-07-29T07:11:23.513Z,64.32
2022-07-29T07:14:45.314Z,64.29
2022-07-29T07:18:08.188Z,63.71
2022-07-29T07:21:31.093Z,63.58
2022-07-29T07:24:52.960Z,62.78
2022-07-29T07:28:16.269Z,63.45
2022-07-29T07:31:39.006Z,63.05
2022-07-29T07:35:00.881Z,62.63
2022-07-29T07:38:22.660Z,62.80
2022-07-29T07:41:44.043Z,62.47
2022-07-29T07:45:16.366Z,62.70
2022-07-29T07:48:38.391Z,61.68
2022-07-29T07:52:00.133Z,62.05
2022-07-29T07:55:22.613Z,61.37
2022-07-29T07:58:44.506Z,60.78
2022-07-29T08:02:08.303Z,60.51
2022-07-29T08:05:30.302Z,60.48
2022-07-29T08:08:52.081Z,60.67
2022-07-29T08:12:14.068Z,60.65
2022-07-29T08:15:36.218Z,59.88
2022-07-29T08:18:59.520Z,59.72
2022-07-29T08:22:21.050Z,59.29
2022-07-29T08:25:43.855Z,58.47
2022-07-29T08:29:05.482Z,57.63
2022-07-29T08:32:52.173Z,56.67
2022-07-29T08:36:14.004Z,56.03
2022-07-29T08:39:36.079Z,55.60
2022-07-29T08:42:57.903Z,53.56
2022-07-29T08:46:20.204Z,53.35
2022-07-29T08:49:41.844Z,52.64
2022-07-29T08:53:05.779Z,52.27
2022-07-29T08:56:27.964Z,51.47
2022-07-29T08:59:52.473Z,51.40
2022-07-29T09:03:20.018Z,51.52
2022-07-29T09:06:45.877Z,50.75
2022-07-29T09:10:10.602Z,49.50
2022-07-29T09:13:32.577Z,48.64
2022-07-29T09:16:56.114Z,48.84
2022-07-29T09:20:20.221Z,48.81
2022-07-29T09:23:42.721Z,48.03
2022-07-29T09:27:10.799Z,48.21
2022-07-29T09:30:32.659Z,48.54
2022-07-29T09:33:56.850Z,48.26
2022-07-29T09:37:28.645Z,47.34
2022-07-29T09:41:04.618Z,47.13
2022-07-29T09:44:43.392Z,46.92
2022-07-29T09:48:16.620Z,46.67
2022-07-29T09:51:38.990Z,45.77
2022-07-29T09:55:07.809Z,45.36
2022-07-29T09:58:29.882Z,45.26
2022-07-29T10:01:53.502Z,45.31
2022-07-29T10:05:21.471Z,44.71
2022-07-29T10:08:44.515Z,45.30
2022-07-29T10:12:08.949Z,44.87
2022-07-29T10:15:32.927Z,43.59
2022-07-29T10:18:55.949Z,42.24
2022-07-29T10:22:36.916Z,39.43
2022-07-29T10:25:59.643Z,37.98
2022-07-29T10:29:21.545Z,36.83
2022-07-29T10:32:56.738Z,35.92
2022-07-29T10:36:34.712Z,36.24
2022-07-29T10:40:25.373Z,36.64
2022-07-29T10:43:51.424Z,35.57
2022-07-29T10:47:23.755Z,35.46
2022-07-29T10:50:55.928Z,34.93
2022-07-29T10:54:19.959Z,34.17
2022-07-29T10:57:54.601Z,34.32
2022-07-29T11:01:37.504Z,33.11
2022-07-29T11:05:02.254Z,33.02
2022-07-29T11:08:28.055Z,33.68
2022-07-29T11:15:55.829Z,34.24
2022-07-29T11:23:33.709Z,33.70
2022-07-29T11:27:14.783Z,33.98
2022-07-29T11:30:53.928Z,33.69
2022-07-29T11:34:27.866Z,34.46
2022-07-29T11:38:28.239Z,34.65
2022-07-29T11:41:50.258Z,34.25
2022-07-29T11:45:43.164Z,34.67
2022-07-29T11:49:04.779Z,35.83
2022-07-29T11:52:34.936Z,35.95
2022-07-29T11:56:16.447Z,36.05
2022-07-29T11:59:42.627Z,34.61
2022-07-29T12:03:08.622Z,35.37
2022-07-29T12:06:30.758Z,35.40
2022-07-29T12:09:53.469Z,35.09
2022-07-29T12:13:20.590Z,35.40
2022-07-29T12:16:43.532Z,35.70
2022-07-29T12:20:07.949Z,35.21
2022-07-29T12:23:34.320Z,34.76
2022-07-29T12:26:58.694Z,34.62
2022-07-29T12:30:20.634Z,34.57
2022-07-29T12:33:42.109Z,34.58
2022-07-29T12:37:05.916Z,34.72
2022-07-29T12:40:28.807Z,34.59
2022-07-29T12:43:55.432Z,34.31
2022-07-29T12:47:18.974Z,34.56
2022-07-29T12:50:55.956Z,34.11
2022-07-29T12:54:19.068Z,34.68
2022-07-29T12:57:48.682Z,34.37
2022-07-29T13:01:17.120Z,34.52
2022-07-29T13:04:39.537Z,34.51
2022-07-29T13:08:22.352Z,34.85
2022-07-29T13:11:58.746Z,35.10
2022-07-29T13:15:20.629Z,35.20
2022-07-29T13:18:42.534Z,34.90
2022-07-29T13:22:05.229Z,35.20
2022-07-29T13:25:28.077Z,34.80
2022-07-29T13:28:51.068Z,34.88
2022-07-29T13:32:13.873Z,34.91
2022-07-29T13:35:36.151Z,34.51
2022-07-29T13:39:03.373Z,34.33
2022-07-29T13:42:25.847Z,34.43
2022-07-29T13:45:49.076Z,34.56
2022-07-29T13:49:12.261Z,34.62
2022-07-29T13:52:34.361Z,34.42
2022-07-29T13:55:56.281Z,34.71
2022-07-29T13:59:18.363Z,34.70
2022-07-29T14:02:41.529Z,34.90
2022-07-29T14:06:03.029Z,34.73
2022-07-29T14:09:24.881Z,35.04
2022-07-29T14:12:46.593Z,35.06
2022-07-29T14:16:09.017Z,33.71
2022-07-29T14:19:33.055Z,33.31
2022-07-29T14:22:54.651Z,33.00
2022-07-29T14:26:21.699Z,33.00
2022-07-29T14:29:45.729Z,33.29
2022-07-29T14:33:07.474Z,33.04
2022-07-29T14:36:30.698Z,32.99
2022-07-29T14:39:52.456Z,32.40
2022-07-29T14:43:14.519Z,32.20
2022-07-29T14:46:36.194Z,31.24
2022-07-29T14:50:00.808Z,31.11
2022-07-29T14:53:23.987Z,31.19
2022-07-29T14:56:46.631Z,30.81
2022-07-29T15:00:10.674Z,30.37
2022-07-29T15:03:33.885Z,30.34
2022-07-29T15:06:56.230Z,30.36
2022-07-29T15:10:19.274Z,30.09
2022-07-29T15:13:42.554Z,30.09
2022-07-29T15:17:04.910Z,29.83
2022-07-29T15:20:28.124Z,29.72
2022-07-29T15:23:49.989Z,28.87
2022-07-29T15:27:15.035Z,29.27
2022-07-29T15:30:41.786Z,28.29
2022-07-29T15:34:06.155Z,27.91
2022-07-29T15:37:29.293Z,28.31
2022-07-29T15:41:10.732Z,27.38
2022-07-29T15:44:34.202Z,27.25
2022-07-29T15:47:55.883Z,27.01
2022-07-29T15:51:17.593Z,27.03
2022-07-29T15:54:41.200Z,26.51
2022-07-29T15:58:05.075Z,26.66
2022-07-29T16:01:28.319Z,26.62
2022-07-29T16:04:49.936Z,26.73
2022-07-29T16:08:11.754Z,26.32
2022-07-29T16:11:33.600Z,26.34
2022-07-29T16:14:55.355Z,26.04
2022-07-29T16:18:18.458Z,25.81
2022-07-29T16:21:40.385Z,25.47
2022-07-29T16:25:01.969Z,25.74
2022-07-29T16:28:23.743Z,25.83
2022-07-29T16:31:45.527Z,26.12
2022-07-29T16:35:10.076Z,26.21
2022-07-29T16:38:31.822Z,26.02
2022-07-29T16:41:55.932Z,26.41
2022-07-29T16:45:21.595Z,26.53
2022-07-29T16:48:43.772Z,26.88
2022-07-29T16:52:08.680Z,26.05
2022-07-29T16:55:30.313Z,26.53
2022-07-29T16:58:52.343Z,26.71
2022-07-29T17:02:14.876Z,26.92
2022-07-29T17:05:53.806Z,26.79
2022-07-29T17:09:17.583Z,27.19
2022-07-29T17:12:41.264Z,27.73
2022-07-29T17:16:02.809Z,28.01
2022-07-29T17:19:25.198Z,28.15
2022-07-29T17:22:47.120Z,28.17
2022-07-29T17:26:10.679Z,28.79
2022-07-29T17:29:34.827Z,29.37
2022-07-29T17:32:56.731Z,29.35
2022-07-29T17:36:27.965Z,29.24
2022-07-29T17:39:50.837Z,28.73
2022-07-29T17:43:13.858Z,28.61
2022-07-29T17:46:35.454Z,29.09
2022-07-29T17:49:57.247Z,28.83
2022-07-29T17:53:19.241Z,29.26
2022-07-29T17:56:41.524Z,29.17
2022-07-29T18:00:08.351Z,30.32
2022-07-29T18:03:30.180Z,30.92
2022-07-29T18:06:51.983Z,31.32
2022-07-29T18:10:13.553Z,32.01
2022-07-29T18:13:35.450Z,31.75
2022-07-29T18:16:59.060Z,32.29
2022-07-29T18:20:21.335Z,32.60
2022-07-29T18:23:43.222Z,32.86
2022-07-29T18:27:05.370Z,33.26
2022-07-29T18:30:27.244Z,33.28
2022-07-29T18:33:50.395Z,34.17
2022-07-29T18:37:12.452Z,33.85
2022-07-29T18:40:35.393Z,34.48
2022-07-29T18:43:57.417Z,34.24
2022-07-29T18:47:19.519Z,34.43
2022-07-29T18:50:43.615Z,34.90
2022-07-29T18:54:06.498Z,34.71
2022-07-29T18:57:54.478Z,34.96
2022-07-29T19:01:13.548Z,34.99
2022-07-29T19:04:38.042Z,35.50
2022-07-29T19:08:01.100Z,35.12
2022-07-29T19:11:23.511Z,36.05
2022-07-29T19:14:45.532Z,36.27
2022-07-29T19:18:07.320Z,36.18
2022-07-29T19:21:29.684Z,36.46
2022-07-29T19:24:53.273Z,37.33
2022-07-29T19:28:15.300Z,37.17
2022-07-29T19:31:37.243Z,37.44
2022-07-29T19:35:16.203Z,37.88
2022-07-29T19:38:39.504Z,37.96
2022-07-29T19:42:03.532Z,38.58
2022-07-29T19:45:26.281Z,38.90
2022-07-29T19:48:52.925Z,38.69
2022-07-29T19:52:16.627Z,39.32
2022-07-29T19:55:38.882Z,39.44
2022-07-29T19:59:02.122Z,41.71
2022-07-29T20:02:23.795Z,42.58
2022-07-29T20:05:47.774Z,42.43
2022-07-29T20:09:09.747Z,42.71
2022-07-29T20:12:42.728Z,43.27
2022-07-29T20:16:08.227Z,43.37
2022-07-29T20:19:30.914Z,43.40
2022-07-29T20:22:54.612Z,43.87
2022-07-29T20:26:16.267Z,43.84
2022-07-29T20:29:38.650Z,44.17
2022-07-29T20:33:01.643Z,44.34
2022-07-29T20:36:23.243Z,44.61
2022-07-29T20:39:46.358Z,44.48
2022-07-29T20:43:10.212Z,44.88
2022-07-29T20:46:32.227Z,45.16
2022-07-29T20:49:56.462Z,45.20
2022-07-29T20:53:20.406Z,45.94
2022-07-29T20:56:42.579Z,45.92
2022-07-29T21:00:05.195Z,46.26
2022-07-29T21:03:27.363Z,46.41
2022-07-29T21:06:50.499Z,46.58
2022-07-29T21:10:14.262Z,46.82
2022-07-29T21:13:38.394Z,46.32
2022-07-29T21:17:00.099Z,45.72
2022-07-29T21:20:22.102Z,45.46
2022-07-29T21:23:45.937Z,45.45
2022-07-29T21:27:24.982Z,45.10
2022-07-29T21:30:46.794Z,44.69
2022-07-29T21:34:08.657Z,44.71
2022-07-29T21:37:30.475Z,44.83
2022-07-29T21:40:54.704Z,44.96
2022-07-29T21:44:16.421Z,44.93
2022-07-29T21:47:38.309Z,44.93
2022-07-29T21:51:00.601Z,44.78
2022-07-29T21:54:22.735Z,45.05
2022-07-29T21:57:46.451Z,45.13
2022-07-29T22:01:08.242Z,44.84
2022-07-29T22:04:30.242Z,45.07
2022-07-29T22:07:55.834Z,45.10
2022-07-29T22:11:18.475Z,45.37
2022-07-29T22:14:43.154Z,45.79
2022-07-29T22:18:05.265Z,45.87
2022-07-29T22:21:26.597Z,46.16
2022-07-29T22:24:48.456Z,45.50
2022-07-29T22:28:10.192Z,45.57
2022-07-29T22:31:33.397Z,46.50
2022-07-29T22:34:55.224Z,46.59
2022-07-29T22:38:17.354Z,46.74
2022-07-29T22:41:38.989Z,47.09
2022-07-29T22:45:00.895Z,47.42
2022-07-29T22:48:26.902Z,47.81
2022-07-29T22:51:48.417Z,47.76
2022-07-29T22:55:10.723Z,48.30
2022-07-29T22:58:32.547Z,49.02
2022-07-29T23:01:54.511Z,49.26
2022-07-29T23:05:17.848Z,49.16
2022-07-29T23:08:39.831Z,49.54
2022-07-29T23:12:01.461Z,49.60
2022-07-29T23:15:23.710Z,49.87
2022-07-29T23:18:45.916Z,50.33
2022-07-29T23:22:08.972Z,50.73
2022-07-29T23:25:30.853Z,50.45
2022-07-29T23:28:52.785Z,50.31
2022-07-29T23:32:14.521Z,50.80
2022-07-29T23:35:36.576Z,50.70
2022-07-29T23:38:59.795Z,50.72
2022-07-29T23:42:21.255Z,50.89
2022-07-29T23:45:45.209Z,50.94
2022-07-29T23:49:11.031Z,51.06
2022-07-29T23:52:32.920Z,51.14
2022-07-29T23:55:58.682Z,50.87
2022-07-29T23:59:20.320Z,51.20
